EVRA Airport Information

Runway Information
Runway 18 Length 10499 ft width 148 ft
Elevation 31 ft Threshold 0 ft Heading 185
Runway 36 Length 10499 ft Width 148 ft
Elevation 34 ft Threshold 0 ft Heading 5
Airport Frequencies
Type APP Name APP Frequency 129.925 MHZ
Type ATIS Name ATIS Frequency 121.2 MHZ
Type GND Name Riga Groun Frequency 118.8 MHZ
Type MISC Name Riga Apron Frequency 131.6 MHZ
Type TWR Name TWR Frequency 118.1 MHZ
Airport Navaids
Type VOR-DME Name Riga Frequency 112050 KHZ
Type VOR-DME Name Riga Frequency 113700 KHZ
Airport Weather Information & NOTAM
ADDS - METARS form results

(0426 UTC 13 December 2018)
Data provider http://aviationweather.gov/metar/data/
 
METAR text: EVRA 130420Z 02008KT 9999 OVC027 M01/M04 Q1026 R36/310195 NOSIG
Conditions at: EVRA (RIGA AIRPORT , LV) observed 0420 UTC 13 December 2018
Temperature: -1.0°C (30°F)
Dewpoint: -4.0°C (25°F) [RH = 80%]
Pressure (altimeter): 30.30 inches Hg (1026.0 mb)
Winds: from the NNE (20 degrees) at 9 MPH (8 knots; 4.1 m/s)
Visibility: 6 or more miles (10+ km)
Ceiling: 2700 feet AGL
Clouds: overcast cloud deck at 2700 feet AGL
Weather: no significant weather observed at this time

METAR text: EVRA 130350Z 02009KT 9999 OVC023 M01/M04 Q1027 R36/310195 NOSIG
Conditions at: EVRA (RIGA AIRPORT , LV) observed 0350 UTC 13 December 2018
Temperature: -1.0°C (30°F)
Dewpoint: -4.0°C (25°F) [RH = 80%]
Pressure (altimeter): 30.32 inches Hg (1027.0 mb)
Winds: from the NNE (20 degrees) at 10 MPH (9 knots; 4.6 m/s)
Visibility: 6 or more miles (10+ km)
Ceiling: 2300 feet AGL
Clouds: overcast cloud deck at 2300 feet AGL
Weather: no significant weather observed at this time

Forecast for: EVRA (RIGA AIRPORT , LV)
Text: TAF EVRA 130201Z 1303/1403 03010KT 9999 OVC020
Forecast period: 0300 UTC 13 December 2018 to 0300 UTC 14 December 2018
Forecast type: FROM: standard forecast or significant change
Winds: from the NNE (30 degrees) at 12 MPH (10 knots; 5.1 m/s)
Visibility: 6 or more miles 10+ km)
Ceiling: 2000 feet AGL
Clouds: overcast cloud deck at 2000 feet AGL
Weather: no significant weather forecast for this period
Text: PROB40
Forecast period: 0300 to 1200 UTC 13 December 2018
Forecast type: TEMPORARY: The following changes expected for less than half the time period
Visibility: missing
Ceiling: 1000 feet AGL
Clouds: broken clouds at 1000 feet AGL
overcast cloud deck at 2000 feet AGL
Weather: no significant weather forecast for this period